createdAt,value
2019-05-07T00:05:39.473Z,999.65
2019-05-07T00:15:39.416Z,999.59
2019-05-07T00:25:39.512Z,999.57
2019-05-07T00:35:39.556Z,999.51
2019-05-07T00:45:39.395Z,999.51
2019-05-07T00:55:39.492Z,999.45
2019-05-07T01:05:39.449Z,999.36
2019-05-07T01:15:39.412Z,999.27
2019-05-07T01:25:39.483Z,999.37
2019-05-07T01:35:39.750Z,999.31
2019-05-07T01:45:48.174Z,999.44
2019-05-07T01:55:39.463Z,999.37
2019-05-07T02:05:39.451Z,999.42
2019-05-07T02:15:39.473Z,999.35
2019-05-07T02:25:41.966Z,999.37
2019-05-07T02:35:39.494Z,999.33
2019-05-07T02:45:39.417Z,999.28
2019-05-07T02:55:39.476Z,999.30
2019-05-07T03:05:39.439Z,999.17
2019-05-07T03:15:43.192Z,999.08
2019-05-07T03:25:39.400Z,999.02
2019-05-07T03:35:39.436Z,999.09
2019-05-07T03:45:39.425Z,999.00
2019-05-07T03:55:39.378Z,999.03
2019-05-07T04:05:39.455Z,999.01
2019-05-07T04:15:39.490Z,999.06
2019-05-07T04:25:39.411Z,999.04
2019-05-07T04:35:43.069Z,999.01
2019-05-07T04:45:39.444Z,999.02
2019-05-07T04:55:42.855Z,998.96
2019-05-07T05:05:39.400Z,998.89
2019-05-07T05:15:39.474Z,998.92
2019-05-07T05:25:39.399Z,998.90
2019-05-07T05:35:39.501Z,998.92
2019-05-07T05:45:39.429Z,998.88
2019-05-07T05:55:39.520Z,998.87
2019-05-07T06:05:39.445Z,998.83
2019-05-07T06:15:39.419Z,998.84
2019-05-07T06:25:39.523Z,998.87
2019-05-07T06:35:39.491Z,998.96
2019-05-07T06:45:39.514Z,998.84
2019-05-07T06:55:39.484Z,998.85
2019-05-07T07:05:39.472Z,998.84
2019-05-07T07:15:39.753Z,998.74
2019-05-07T07:25:39.520Z,998.77
2019-05-07T07:35:39.491Z,998.80
2019-05-07T07:45:41.893Z,998.66
2019-05-07T07:55:39.522Z,998.70
2019-05-07T08:05:39.477Z,998.65
2019-05-07T08:15:39.542Z,998.56
2019-05-07T08:25:39.518Z,998.47
2019-05-07T08:35:41.788Z,998.48
2019-05-07T08:45:39.536Z,998.42
2019-05-07T08:55:39.605Z,998.28
2019-05-07T09:05:39.476Z,998.22
2019-05-07T09:15:39.595Z,998.19
2019-05-07T09:25:41.568Z,998.12
2019-05-07T09:35:39.867Z,998.08
2019-05-07T09:45:41.880Z,997.94
2019-05-07T09:55:39.492Z,997.86
2019-05-07T10:05:39.528Z,997.84
2019-05-07T10:15:41.747Z,997.80
2019-05-07T10:25:39.525Z,997.73
2019-05-07T10:35:39.564Z,997.64
2019-05-07T10:45:39.529Z,997.57
2019-05-07T10:55:39.543Z,997.45
2019-05-07T11:05:41.707Z,997.45
2019-05-07T11:15:39.553Z,997.44
2019-05-07T11:25:39.524Z,997.24
2019-05-07T11:35:39.492Z,997.17
2019-05-07T11:45:39.563Z,996.96
2019-05-07T11:55:41.932Z,996.85
2019-05-07T12:05:39.516Z,996.74
2019-05-07T12:15:39.580Z,996.63
2019-05-07T12:25:39.551Z,996.57
2019-05-07T12:35:41.912Z,996.52
2019-05-07T12:45:39.520Z,996.44
2019-05-07T12:55:39.567Z,996.42
2019-05-07T13:05:41.622Z,996.26
2019-05-07T13:15:39.568Z,996.17
2019-05-07T13:25:39.561Z,996.04
2019-05-07T13:35:39.511Z,995.95
2019-05-07T13:45:41.670Z,995.85
2019-05-07T13:55:43.039Z,995.71
2019-05-07T14:05:39.643Z,995.59
2019-05-07T14:15:39.589Z,995.67
2019-05-07T14:25:41.946Z,995.48
2019-05-07T14:35:39.613Z,995.42
2019-05-07T14:45:41.971Z,995.31
2019-05-07T14:55:41.664Z,995.05
2019-05-07T15:05:39.520Z,994.91
2019-05-07T15:15:39.674Z,994.81
2019-05-07T15:25:39.431Z,994.75
2019-05-07T15:35:39.515Z,994.69
2019-05-07T15:45:39.496Z,994.64
2019-05-07T15:55:41.637Z,994.52
2019-05-07T16:05:39.512Z,994.42
2019-05-07T16:15:39.595Z,994.29
2019-05-07T16:25:39.574Z,994.22
2019-05-07T16:35:39.531Z,994.10
2019-05-07T16:45:39.473Z,993.99
2019-05-07T16:55:39.485Z,993.88
2019-05-07T17:05:39.531Z,993.82
2019-05-07T17:15:39.468Z,993.83
2019-05-07T17:25:39.466Z,993.83
2019-05-07T17:35:39.548Z,993.83
2019-05-07T17:45:39.595Z,993.79
2019-05-07T17:55:42.169Z,993.70
2019-05-07T18:05:39.458Z,993.62
2019-05-07T18:15:39.542Z,993.53
2019-05-07T18:25:39.520Z,993.43
2019-05-07T18:35:39.498Z,993.32
2019-05-07T18:45:39.549Z,993.39
2019-05-07T18:55:39.704Z,993.35
2019-05-07T19:05:39.580Z,993.35
2019-05-07T19:15:41.855Z,993.42
2019-05-07T19:25:41.912Z,993.32
2019-05-07T19:35:41.751Z,993.23
2019-05-07T19:45:41.753Z,993.25
2019-05-07T19:55:42.020Z,993.25
2019-05-07T20:05:41.878Z,993.24
2019-05-07T20:15:39.546Z,993.18
2019-05-07T20:25:41.845Z,992.93
2019-05-07T20:35:41.343Z,992.73
2019-05-07T20:45:39.573Z,992.67
2019-05-07T20:55:39.620Z,992.65
2019-05-07T21:05:41.657Z,992.52
2019-05-07T21:15:41.760Z,992.44
2019-05-07T21:25:43.600Z,992.27
2019-05-07T21:35:39.743Z,992.20
2019-05-07T21:45:39.612Z,992.06
2019-05-07T21:55:39.590Z,991.95
2019-05-07T22:05:44.058Z,991.72
2019-05-07T22:15:39.617Z,991.58
2019-05-07T22:25:39.583Z,991.46
2019-05-07T22:35:39.563Z,991.30
2019-05-07T22:45:39.553Z,991.02
2019-05-07T22:55:41.800Z,990.93
2019-05-07T23:05:39.551Z,990.83
2019-05-07T23:15:39.541Z,990.55
2019-05-07T23:25:39.485Z,990.53
2019-05-07T23:35:39.427Z,990.39
2019-05-07T23:45:39.547Z,990.21
2019-05-07T23:55:39.479Z,990.07
